Time;durP1;ratioP1;P1;durP2;ratioP2;P2;SDS_P1;SDS_P2;PMS_P1;PMS_P2;Temp;Humidity;BMP_temperature;BMP_pressure;BME280_temperature;BME280_humidity;BME280_pressure;Samples;Min_cycle;Max_cycle;Signal;HPM_P1;HPM_P2
2023/01/01 00:06:49;;;;;;;114.95;77.90;;;12.30;94.90;;;;;;6338263;22;20033;-84
2023/01/01 00:12:06;;;;;;;100.15;67.38;;;12.30;94.70;;;;;;6376428;22;20036;-75
2023/01/01 00:14:42;;;;;;;98.43;69.60;;;12.30;94.80;;;;;;6379776;22;20008;-76
2023/01/01 00:24:23;;;;;;;95.40;63.50;;;12.30;94.70;;;;;;6379994;22;20071;-78
2023/01/01 00:27:21;;;;;;;91.93;62.75;;;12.30;94.60;;;;;;6377791;22;20018;-78
2023/01/01 00:30:00;;;;;;;88.95;60.92;;;12.30;94.70;;;;;;6350664;22;20077;-78
2023/01/01 00:32:30;;;;;;;96.18;64.53;;;12.30;94.70;;;;;;6350682;22;20002;-78
2023/01/01 00:35:49;;;;;;;100.70;68.63;;;12.30;94.70;;;;;;6351267;22;20038;-78
2023/01/01 00:38:22;;;;;;;101.15;67.88;;;12.30;94.70;;;;;;6220307;23;20056;-78
2023/01/01 00:40:49;;;;;;;91.82;64.05;;;12.30;94.70;;;;;;6368242;22;20028;-77
2023/01/01 00:43:19;;;;;;;101.70;69.78;;;12.30;94.70;;;;;;6324389;22;20006;-78
2023/01/01 00:45:47;;;;;;;99.22;67.47;;;12.30;94.80;;;;;;6349789;22;20009;-78
2023/01/01 00:48:21;;;;;;;97.82;67.95;;;12.30;94.80;;;;;;6324268;22;20049;-78
2023/01/01 00:51:00;;;;;;;96.70;66.63;;;12.30;95.00;;;;;;6351551;22;20007;-78
2023/01/01 00:53:40;;;;;;;92.32;64.55;;;12.30;94.80;;;;;;6379674;22;20033;-78
2023/01/01 00:56:12;;;;;;;95.75;64.28;;;12.30;94.80;;;;;;6345756;22;20004;-77
2023/01/01 00:58:49;;;;;;;92.57;64.30;;;12.20;94.80;;;;;;6348641;22;19999;-79
2023/01/01 01:01:34;;;;;;;99.30;65.78;;;12.30;94.90;;;;;;6372307;22;20074;-78
2023/01/01 01:04:11;;;;;;;112.40;76.05;;;12.30;94.80;;;;;;6344190;22;20084;-78
2023/01/01 01:06:44;;;;;;;106.70;72.57;;;12.30;94.70;;;;;;6372267;22;20026;-78
2023/01/01 01:16:52;;;;;;;;;;;;;;;;;;;;;
2023/01/01 01:20:13;;;;;;;120.95;80.38;;;12.20;94.80;;;;;;6202746;23;20068;-79
2023/01/01 01:23:05;;;;;;;;;;;;;;;;;;;;;
2023/01/01 01:25:39;;;;;;;103.55;74.00;;;12.20;94.80;;;;;;6373357;22;20392;-77
2023/01/01 01:28:05;;;;;;;109.88;73.22;;;12.20;94.80;;;;;;6345699;22;20408;-77
2023/01/01 01:30:38;;;;;;;96.68;68.40;;;12.20;94.90;;;;;;6375570;22;20083;-78
2023/01/01 01:33:09;;;;;;;100.38;68.30;;;12.20;94.80;;;;;;6347737;22;20026;-78
2023/01/01 01:35:39;;;;;;;105.45;69.28;;;12.20;94.90;;;;;;6345002;22;20318;-78
2023/01/01 01:42:51;;;;;;;96.63;65.75;;;12.20;94.90;;;;;;6208569;23;20023;-79
2023/01/01 01:45:37;;;;;;;100.93;66.68;;;12.20;94.90;;;;;;6217439;23;20040;-78
2023/01/01 01:52:02;;;;;;;103.30;70.05;;;12.20;94.80;;;;;;6231260;22;20018;-78
2023/01/01 01:54:52;;;;;;;111.30;71.75;;;12.20;94.80;;;;;;6349064;22;20043;-81
2023/01/01 02:01:43;;;;;;;118.68;73.93;;;12.20;94.90;;;;;;6371893;22;19928;-81
2023/01/01 02:04:12;;;;;;;113.85;74.47;;;12.10;94.90;;;;;;6376275;22;19999;-82
2023/01/01 02:06:59;;;;;;;105.53;70.60;;;12.10;94.90;;;;;;6346722;22;20006;-81
2023/01/01 02:13:03;;;;;;;102.05;65.88;;;12.10;95.00;;;;;;6373211;22;20462;-80
2023/01/01 02:15:53;;;;;;;104.32;67.22;;;12.10;95.00;;;;;;6294457;22;20010;-81
2023/01/01 02:22:19;;;;;;;98.53;63.92;;;12.10;95.00;;;;;;6354932;22;20036;-82
2023/01/01 02:25:22;;;;;;;103.93;64.93;;;12.20;95.00;;;;;;6349404;22;20006;-83
2023/01/01 02:28:40;;;;;;;96.78;64.10;;;12.10;95.00;;;;;;6193592;23;20005;-82
2023/01/01 02:31:16;;;;;;;98.93;66.70;;;12.10;95.00;;;;;;6348341;22;20003;-82
2023/01/01 02:33:52;;;;;;;102.47;65.18;;;12.10;95.00;;;;;;6352358;22;20018;-83
2023/01/01 02:37:25;;;;;;;108.82;70.18;;;12.10;95.00;;;;;;6348387;22;19999;-83
2023/01/01 02:44:26;;;;;;;88.68;63.08;;;12.10;95.00;;;;;;6158455;23;20144;-84
2023/01/01 02:46:54;;;;;;;90.20;61.65;;;12.10;95.10;;;;;;6214159;22;20021;-83
2023/01/01 02:49:27;;;;;;;90.55;60.28;;;12.10;95.10;;;;;;6322192;22;20025;-83
2023/01/01 02:52:22;;;;;;;86.53;59.10;;;12.10;95.10;;;;;;6348654;22;20027;-82
2023/01/01 02:55:51;;;;;;;86.88;60.20;;;12.10;95.10;;;;;;6346900;22;20318;-81
2023/01/01 03:23:49;;;;;;;82.75;55.50;;;12.10;95.00;;;;;;6153912;23;20032;-84
2023/01/01 03:30:12;;;;;;;75.90;53.28;;;12.10;95.00;;;;;;6157807;23;20112;-84
2023/01/01 03:32:59;;;;;;;79.65;54.47;;;12.10;95.00;;;;;;6214051;23;20074;-84
2023/01/01 03:35:31;;;;;;;81.25;53.92;;;12.20;95.10;;;;;;6253930;22;20019;-84
2023/01/01 03:37:59;;;;;;;79.78;55.05;;;12.20;95.00;;;;;;6370540;22;19994;-84
2023/01/01 03:40:26;;;;;;;82.30;55.42;;;12.20;95.00;;;;;;6370099;22;20002;-84
2023/01/01 03:43:02;;;;;;;81.38;52.13;;;12.20;95.00;;;;;;6371079;22;20002;-84
2023/01/01 03:45:39;;;;;;;75.22;52.63;;;12.20;95.00;;;;;;6370692;22;20002;-84
2023/01/01 03:48:05;;;;;;;80.45;53.72;;;12.20;95.00;;;;;;6370261;22;20005;-84
2023/01/01 03:51:02;;;;;;;76.25;54.95;;;12.20;95.00;;;;;;6370607;22;20029;-83
2023/01/01 03:53:42;;;;;;;74.78;52.58;;;12.20;94.90;;;;;;6303928;22;20008;-84
2023/01/01 03:56:16;;;;;;;83.23;55.70;;;12.20;94.90;;;;;;6370726;22;20085;-83
2023/01/01 03:58:52;;;;;;;84.30;58.53;;;12.20;94.80;;;;;;6370816;22;20067;-82
2023/01/01 04:01:25;;;;;;;78.15;54.75;;;12.20;94.80;;;;;;6371258;22;19999;-83
2023/01/01 04:03:52;;;;;;;78.55;54.80;;;12.20;94.80;;;;;;6371169;22;20010;-82
2023/01/01 04:06:18;;;;;;;77.63;53.38;;;12.10;94.90;;;;;;6370582;22;20101;-82
2023/01/01 04:08:45;;;;;;;81.43;55.28;;;12.10;94.90;;;;;;6370873;22;20005;-82
2023/01/01 04:14:04;;;;;;;83.18;55.90;;;12.10;94.90;;;;;;6370851;22;20059;-83
2023/01/01 04:16:30;;;;;;;81.18;57.88;;;12.10;94.90;;;;;;6370030;22;20006;-83
2023/01/01 04:18:55;;;;;;;90.15;59.40;;;12.00;95.00;;;;;;6370756;22;20001;-83
2023/01/01 04:21:21;;;;;;;84.38;57.97;;;12.00;95.00;;;;;;6370635;22;20073;-82
2023/01/01 04:23:46;;;;;;;90.93;58.55;;;12.10;95.00;;;;;;6370582;22;20026;-81
2023/01/01 04:26:13;;;;;;;84.53;55.70;;;12.00;95.00;;;;;;6370565;22;20002;-81
2023/01/01 04:28:40;;;;;;;80.90;57.15;;;12.00;95.20;;;;;;6370157;22;20003;-82
2023/01/01 04:31:07;;;;;;;83.63;57.17;;;12.00;95.00;;;;;;6370667;22;20009;-82
2023/01/01 04:33:33;;;;;;;81.88;54.70;;;12.00;95.00;;;;;;6371037;22;19998;-83
2023/01/01 04:36:16;;;;;;;79.18;54.22;;;12.00;95.10;;;;;;6371097;22;19995;-84
2023/01/01 04:38:42;;;;;;;78.90;53.28;;;12.10;95.10;;;;;;6342471;22;20014;-84
2023/01/01 04:41:08;;;;;;;84.65;56.75;;;12.10;95.10;;;;;;6371004;22;20002;-85
2023/01/01 04:43:34;;;;;;;79.05;54.03;;;12.10;95.00;;;;;;6370933;22;20051;-83
2023/01/01 04:46:01;;;;;;;77.35;53.13;;;12.10;95.00;;;;;;6370927;22;20002;-84
2023/01/01 04:48:29;;;;;;;76.35;53.90;;;12.10;95.00;;;;;;6369847;22;19999;-84
2023/01/01 04:51:03;;;;;;;78.50;53.60;;;12.10;95.00;;;;;;6370825;22;20031;-84
2023/01/01 04:53:32;;;;;;;76.20;54.15;;;12.10;95.00;;;;;;6370815;22;20005;-84
2023/01/01 04:56:06;;;;;;;81.80;55.38;;;12.10;95.30;;;;;;6370646;22;19994;-83
2023/01/01 04:58:33;;;;;;;81.47;54.20;;;12.10;95.00;;;;;;6370134;22;20001;-82
2023/01/01 05:00:59;;;;;;;77.78;53.20;;;12.10;95.00;;;;;;6343098;22;20005;-83
2023/01/01 05:03:24;;;;;;;82.07;54.70;;;12.10;95.00;;;;;;6370744;22;19998;-83
2023/01/01 05:06:08;;;;;;;73.40;50.97;;;12.10;95.10;;;;;;6370111;22;20078;-83
2023/01/01 05:08:37;;;;;;;85.22;55.45;;;12.10;95.10;;;;;;6370029;22;20316;-82
2023/01/01 05:11:11;;;;;;;80.07;55.00;;;12.10;95.10;;;;;;6369935;22;20006;-81
2023/01/01 05:13:38;;;;;;;80.35;54.22;;;12.10;95.10;;;;;;6370076;22;19998;-82
2023/01/01 05:16:05;;;;;;;77.45;53.72;;;12.10;95.10;;;;;;6369430;22;19998;-81
2023/01/01 05:18:31;;;;;;;77.20;52.85;;;12.10;95.10;;;;;;6370072;22;19995;-81
2023/01/01 05:21:01;;;;;;;75.82;53.42;;;12.10;95.10;;;;;;6370327;22;20002;-81
2023/01/01 05:23:28;;;;;;;73.57;51.70;;;12.10;95.10;;;;;;6370054;22;19999;-83
2023/01/01 05:25:54;;;;;;;74.82;52.88;;;12.10;95.10;;;;;;6369540;22;20014;-82
2023/01/01 05:28:20;;;;;;;77.25;52.60;;;12.10;95.00;;;;;;6341531;22;20135;-84
2023/01/01 05:30:45;;;;;;;74.88;53.08;;;12.10;95.00;;;;;;6369446;22;20456;-83
2023/01/01 05:33:12;;;;;;;77.82;55.28;;;12.10;95.00;;;;;;6369988;22;20006;-83
2023/01/01 05:35:38;;;;;;;77.15;52.72;;;12.10;95.00;;;;;;6369721;22;20051;-83
2023/01/01 05:38:03;;;;;;;77.75;52.70;;;12.10;95.00;;;;;;6369084;22;19994;-83
2023/01/01 05:40:30;;;;;;;79.05;53.50;;;12.10;95.10;;;;;;6369944;22;20138;-83
2023/01/01 05:42:55;;;;;;;76.93;52.90;;;12.10;95.10;;;;;;6370076;22;20001;-83
2023/01/01 05:45:21;;;;;;;78.55;53.13;;;12.10;95.30;;;;;;6341865;22;20007;-83
2023/01/01 05:47:47;;;;;;;74.75;53.97;;;12.10;95.10;;;;;;6369934;22;19998;-83
2023/01/01 05:50:13;;;;;;;77.65;53.60;;;12.10;95.10;;;;;;6369879;22;19998;-83
2023/01/01 05:52:38;;;;;;;78.00;54.78;;;12.10;95.10;;;;;;6369460;22;19998;-83
2023/01/01 05:55:05;;;;;;;81.40;54.30;;;12.10;95.10;;;;;;6369659;22;20030;-84
2023/01/01 05:57:30;;;;;;;82.65;54.80;;;12.00;95.10;;;;;;6369283;22;20001;-83
2023/01/01 05:59:56;;;;;;;80.00;55.05;;;12.10;95.30;;;;;;6369495;22;19999;-82
2023/01/01 06:02:22;;;;;;;79.85;55.17;;;12.00;95.10;;;;;;6369950;22;20004;-82
2023/01/01 06:04:47;;;;;;;81.65;57.22;;;12.00;95.10;;;;;;6370304;22;20443;-81
2023/01/01 06:07:13;;;;;;;79.75;55.83;;;12.00;95.10;;;;;;6341988;22;20059;-80
2023/01/01 06:09:39;;;;;;;78.20;54.13;;;12.00;95.10;;;;;;6369724;22;20022;-80
2023/01/01 06:12:05;;;;;;;79.20;55.15;;;12.00;95.00;;;;;;6369288;22;20404;-80
2023/01/01 06:14:31;;;;;;;80.30;55.33;;;12.00;95.00;;;;;;6370118;22;20006;-81
2023/01/01 06:16:56;;;;;;;81.07;56.03;;;12.00;95.00;;;;;;6369145;22;19998;-80
2023/01/01 06:19:22;;;;;;;77.80;54.47;;;12.00;95.00;;;;;;6369549;22;20009;-83
2023/01/01 06:21:47;;;;;;;76.53;52.42;;;12.00;95.00;;;;;;6370109;22;20001;-84
2023/01/01 06:24:14;;;;;;;81.93;54.65;;;12.00;95.10;;;;;;6369666;22;20107;-86
2023/01/01 06:26:40;;;;;;;76.05;53.63;;;12.00;95.10;;;;;;6342134;22;20011;-86
2023/01/01 06:29:05;;;;;;;78.60;55.20;;;12.00;95.10;;;;;;6369886;22;20438;-82
2023/01/01 06:31:32;;;;;;;77.22;53.58;;;12.00;95.00;;;;;;6369900;22;20025;-83
2023/01/01 06:33:57;;;;;;;80.53;55.60;;;12.00;95.00;;;;;;6369993;22;20014;-83
2023/01/01 06:36:24;;;;;;;81.75;55.85;;;12.00;95.00;;;;;;6370314;22;20116;-84
2023/01/01 06:38:53;;;;;;;82.15;55.00;;;12.00;95.00;;;;;;6371121;22;20025;-83
2023/01/01 06:41:22;;;;;;;77.47;53.95;;;12.00;95.00;;;;;;6372262;22;20006;-83
2023/01/01 06:43:48;;;;;;;82.90;55.92;;;12.00;95.00;;;;;;6371987;22;20022;-83
2023/01/01 06:46:19;;;;;;;83.57;53.75;;;12.00;95.00;;;;;;6371782;22;19999;-83
2023/01/01 06:48:46;;;;;;;83.57;55.03;;;12.00;95.00;;;;;;6371924;22;20002;-84
2023/01/01 06:51:18;;;;;;;79.20;54.85;;;12.00;95.00;;;;;;6372057;22;19999;-84
2023/01/01 06:53:44;;;;;;;75.13;54.22;;;12.00;95.00;;;;;;6371874;22;20017;-84
2023/01/01 06:56:10;;;;;;;82.72;55.47;;;12.00;95.00;;;;;;6370799;22;20374;-85
2023/01/01 06:58:36;;;;;;;76.20;52.53;;;12.00;94.90;;;;;;6371442;22;20044;-83
2023/01/01 07:01:04;;;;;;;74.15;51.67;;;12.00;95.10;;;;;;6370739;22;20320;-84
2023/01/01 07:03:29;;;;;;;71.93;51.03;;;12.10;94.90;;;;;;6371788;22;20003;-85
2023/01/01 07:05:55;;;;;;;74.95;53.08;;;12.10;94.80;;;;;;6370387;22;20452;-83
2023/01/01 07:08:21;;;;;;;75.88;50.05;;;12.10;94.80;;;;;;6371400;22;20422;-83
2023/01/01 07:10:46;;;;;;;77.60;51.50;;;12.10;94.80;;;;;;6371141;22;20017;-83
2023/01/01 07:13:12;;;;;;;75.40;52.13;;;12.10;94.70;;;;;;6371270;22;20006;-84
2023/01/01 07:15:38;;;;;;;76.32;50.85;;;12.10;94.70;;;;;;6370654;22;20033;-84
2023/01/01 07:18:03;;;;;;;70.78;50.03;;;12.10;94.60;;;;;;6371239;22;19999;-84
2023/01/01 07:20:29;;;;;;;77.78;51.10;;;12.10;94.60;;;;;;6371202;22;20048;-85
2023/01/01 07:22:55;;;;;;;71.07;49.65;;;12.20;94.60;;;;;;6371523;22;19998;-85
2023/01/01 07:25:20;;;;;;;73.40;50.13;;;12.20;94.30;;;;;;6371075;22;20006;-85
2023/01/01 07:27:46;;;;;;;73.65;51.08;;;12.20;94.50;;;;;;6370315;22;20018;-84
2023/01/01 07:30:12;;;;;;;72.13;49.60;;;12.20;94.50;;;;;;6371371;22;20055;-84
2023/01/01 07:32:37;;;;;;;72.22;50.70;;;12.20;94.50;;;;;;6370716;22;19995;-85
2023/01/01 07:35:03;;;;;;;69.78;49.83;;;12.20;94.50;;;;;;6370783;22;20002;-84
2023/01/01 07:37:29;;;;;;;69.15;47.92;;;12.20;94.50;;;;;;6371847;22;20302;-84
2023/01/01 07:39:55;;;;;;;67.38;47.42;;;12.30;94.50;;;;;;6370629;22;20128;-84
2023/01/01 07:42:21;;;;;;;67.85;48.15;;;12.30;94.40;;;;;;6371057;22;19998;-84
2023/01/01 07:44:46;;;;;;;72.93;48.53;;;12.30;94.40;;;;;;6369637;22;20006;-84
2023/01/01 07:47:22;;;;;;;66.65;47.53;;;12.30;94.30;;;;;;6370289;22;20332;-82
2023/01/01 07:49:48;;;;;;;70.97;47.53;;;12.30;94.40;;;;;;6370553;22;19998;-83
2023/01/01 07:52:13;;;;;;;64.43;43.80;;;12.30;94.30;;;;;;6368067;22;20013;-82
2023/01/01 07:54:39;;;;;;;66.05;45.40;;;12.30;94.30;;;;;;6369934;22;19998;-82
2023/01/01 07:57:04;;;;;;;73.00;48.72;;;12.30;94.30;;;;;;6370036;22;19994;-76
2023/01/01 07:59:30;;;;;;;70.93;48.60;;;12.30;94.30;;;;;;6370248;22;20317;-76
2023/01/01 08:01:56;;;;;;;68.28;47.70;;;12.30;94.30;;;;;;6370018;22;20021;-82
2023/01/01 08:04:22;;;;;;;68.38;47.55;;;12.30;94.30;;;;;;6371334;22;20030;-81
2023/01/01 08:06:47;;;;;;;70.80;47.33;;;12.40;94.30;;;;;;6369575;22;19998;-82
2023/01/01 08:09:13;;;;;;;64.95;45.90;;;12.30;94.20;;;;;;6367886;22;20074;-82
2023/01/01 08:11:39;;;;;;;65.10;46.35;;;12.40;94.20;;;;;;6368768;22;20025;-82
2023/01/01 08:14:04;;;;;;;63.92;45.03;;;12.40;94.10;;;;;;6370487;22;19998;-82
2023/01/01 08:16:30;;;;;;;66.63;47.88;;;12.40;94.20;;;;;;6370375;22;20024;-80
2023/01/01 08:18:56;;;;;;;64.85;46.10;;;12.40;94.20;;;;;;6369970;22;20116;-85
2023/01/01 08:21:21;;;;;;;64.03;46.08;;;12.40;94.10;;;;;;6342358;22;20304;-80
2023/01/01 08:23:47;;;;;;;67.20;46.58;;;12.50;94.30;;;;;;6342084;22;20067;-80
2023/01/01 08:26:15;;;;;;;59.50;43.03;;;12.50;94.20;;;;;;6368800;22;20013;-80
2023/01/01 08:28:41;;;;;;;62.75;43.63;;;12.50;94.20;;;;;;6369634;22;20372;-81
2023/01/01 08:31:06;;;;;;;64.70;43.63;;;12.60;94.20;;;;;;6369003;22;20029;-82
2023/01/01 08:33:32;;;;;;;60.58;42.80;;;12.60;94.20;;;;;;6369238;22;20006;-80
2023/01/01 08:35:59;;;;;;;56.50;40.33;;;12.70;94.20;;;;;;6369350;22;20078;-79
2023/01/01 08:38:25;;;;;;;58.58;39.30;;;12.80;94.20;;;;;;6370301;22;19998;-79
2023/01/01 08:40:51;;;;;;;60.13;42.53;;;12.90;94.20;;;;;;6369709;22;20286;-82
2023/01/01 08:43:17;;;;;;;58.60;40.72;;;13.10;94.10;;;;;;6368464;22;20320;-81
2023/01/01 08:45:42;;;;;;;56.22;39.80;;;13.10;93.70;;;;;;6366898;22;20081;-81
2023/01/01 08:48:08;;;;;;;59.72;40.95;;;13.10;93.60;;;;;;6368399;22;20010;-81
2023/01/01 08:50:34;;;;;;;64.10;43.40;;;13.20;93.60;;;;;;6368822;22;20003;-80
2023/01/01 08:52:59;;;;;;;52.50;39.63;;;13.20;93.50;;;;;;6369554;22;20051;-80
2023/01/01 08:55:26;;;;;;;55.92;39.47;;;13.20;93.40;;;;;;6339683;22;20490;-80
2023/01/01 08:57:51;;;;;;;51.97;38.03;;;13.20;93.40;;;;;;6367761;22;20054;-81
2023/01/01 09:00:17;;;;;;;56.38;39.38;;;13.20;93.40;;;;;;6369391;22;20402;-80
2023/01/01 09:02:43;;;;;;;53.22;37.22;;;13.20;93.40;;;;;;6369561;22;20493;-81
2023/01/01 09:05:09;;;;;;;52.97;39.28;;;13.30;93.30;;;;;;6369446;22;20367;-81
2023/01/01 09:07:34;;;;;;;50.70;37.78;;;13.40;93.30;;;;;;6369926;22;20051;-80
2023/01/01 09:10:02;;;;;;;57.53;38.25;;;13.40;93.20;;;;;;6369327;22;20030;-81
2023/01/01 09:12:27;;;;;;;51.30;37.10;;;13.40;93.10;;;;;;6369552;22;20009;-80
2023/01/01 09:14:53;;;;;;;52.08;36.67;;;13.40;93.00;;;;;;6368884;22;20010;-81
2023/01/01 09:17:19;;;;;;;50.63;35.97;;;13.50;93.00;;;;;;6369566;22;20120;-81
2023/01/01 09:19:44;;;;;;;50.88;37.65;;;13.60;93.00;;;;;;6369201;22;19998;-81
2023/01/01 09:22:11;;;;;;;55.33;38.53;;;13.70;93.00;;;;;;6367275;22;19998;-81
2023/01/01 09:24:37;;;;;;;50.75;37.10;;;13.70;93.00;;;;;;6368787;22;20327;-81
2023/01/01 09:27:03;;;;;;;55.15;37.35;;;13.70;92.80;;;;;;6368572;22;20005;-81
2023/01/01 09:29:29;;;;;;;54.58;37.08;;;13.80;92.80;;;;;;6368046;22;20010;-81
2023/01/01 09:31:55;;;;;;;53.53;35.33;;;13.80;92.60;;;;;;6369037;22;20463;-81
2023/01/01 09:34:21;;;;;;;52.53;36.42;;;13.80;92.50;;;;;;6341470;22;20038;-81
2023/01/01 09:36:47;;;;;;;51.22;36.88;;;13.80;92.50;;;;;;6367838;22;19995;-81
2023/01/01 09:39:14;;;;;;;49.67;36.05;;;13.90;92.60;;;;;;6370538;22;20045;-81
2023/01/01 09:42:01;;;;;;;53.47;37.03;;;13.90;92.50;;;;;;6369400;22;20052;-81
2023/01/01 09:44:46;;;;;;;48.70;34.10;;;13.90;92.40;;;;;;6369657;22;20000;-80
2023/01/01 09:47:17;;;;;;;48.33;33.63;;;13.90;92.20;;;;;;6369430;22;20084;-81
2023/01/01 09:49:47;;;;;;;49.22;34.67;;;13.90;92.40;;;;;;6369129;22;20073;-81
2023/01/01 09:52:15;;;;;;;50.53;34.78;;;13.90;92.40;;;;;;6368638;22;20098;-81
2023/01/01 09:54:48;;;;;;;53.17;36.80;;;14.00;92.40;;;;;;6367595;22;20009;-81
2023/01/01 09:57:13;;;;;;;49.75;34.92;;;14.00;92.40;;;;;;6369301;22;19994;-81
2023/01/01 09:59:39;;;;;;;48.35;34.70;;;14.00;92.30;;;;;;6369189;22;20003;-81
2023/01/01 10:02:27;;;;;;;49.40;34.92;;;14.00;92.20;;;;;;6341110;22;20077;-82
2023/01/01 10:04:58;;;;;;;47.45;32.78;;;14.10;92.30;;;;;;6367994;22;20005;-81
2023/01/01 10:07:42;;;;;;;49.85;32.60;;;14.10;92.20;;;;;;6369751;22;20439;-82
2023/01/01 10:10:26;;;;;;;50.83;33.55;;;14.10;92.10;;;;;;6368968;22;20003;-80
2023/01/01 10:13:03;;;;;;;51.08;37.08;;;14.10;92.10;;;;;;6370847;22;20006;-82
2023/01/01 10:15:33;;;;;;;47.63;35.55;;;14.00;92.00;;;;;;6370934;22;20026;-80
2023/01/01 10:18:04;;;;;;;50.65;36.55;;;14.00;92.00;;;;;;6370782;22;20051;-80
2023/01/01 10:20:38;;;;;;;50.63;37.67;;;14.00;92.10;;;;;;6369315;22;20025;-81
2023/01/01 10:23:15;;;;;;;42.40;31.63;;;13.90;92.20;;;;;;6370358;22;19995;-85
2023/01/01 10:25:42;;;;;;;47.95;32.13;;;13.90;92.40;;;;;;6370233;22;20033;-81
2023/01/01 10:28:22;;;;;;;46.80;34.25;;;13.90;92.50;;;;;;6371275;22;20400;-80
2023/01/01 10:31:12;;;;;;;47.05;32.72;;;14.00;92.50;;;;;;6370354;22;19999;-82
2023/01/01 10:33:38;;;;;;;;;;;14.00;92.40;;;;;;6371239;22;20029;-82
2023/01/01 10:36:04;;;;;;;47.60;33.38;;;14.10;92.50;;;;;;6371333;22;19898;-82
2023/01/01 10:38:31;;;;;;;49.75;34.40;;;14.10;92.30;;;;;;6370978;22;20056;-84
2023/01/01 10:41:05;;;;;;;49.10;34.63;;;14.10;92.30;;;;;;6343294;22;20167;-81
2023/01/01 10:43:30;;;;;;;50.20;34.78;;;14.10;92.20;;;;;;6344034;22;20013;-82
2023/01/01 10:45:59;;;;;;;52.13;35.15;;;14.20;92.10;;;;;;6370925;22;20003;-82
2023/01/01 10:48:26;;;;;;;51.42;33.90;;;14.20;92.10;;;;;;6342795;22;20033;-82
2023/01/01 10:51:00;;;;;;;50.83;36.10;;;14.20;92.00;;;;;;6371566;22;20002;-82
2023/01/01 10:53:42;;;;;;;54.83;35.25;;;14.30;92.00;;;;;;6370993;22;20002;-81
2023/01/01 10:56:15;;;;;;;49.10;34.40;;;14.20;92.00;;;;;;6371453;22;19998;-82
2023/01/01 10:58:43;;;;;;;48.15;35.28;;;14.30;92.00;;;;;;6370979;22;20401;-82
2023/01/01 11:01:24;;;;;;;52.70;34.85;;;14.20;92.00;;;;;;6371837;22;20002;-82
2023/01/01 11:04:06;;;;;;;51.90;35.28;;;14.30;92.00;;;;;;6371759;22;20051;-82
2023/01/01 11:06:45;;;;;;;48.30;33.88;;;14.40;92.00;;;;;;6343891;22;20378;-82
2023/01/01 11:09:26;;;;;;;52.90;36.92;;;14.40;92.00;;;;;;6370948;22;20005;-82
2023/01/01 11:12:06;;;;;;;48.72;34.13;;;14.40;91.90;;;;;;6371686;22;20018;-82
2023/01/01 11:14:40;;;;;;;;;;;14.50;91.90;;;;;;6371870;22;20017;-82
2023/01/01 11:17:07;;;;;;;49.67;32.80;;;14.60;91.80;;;;;;6371769;22;19982;-82
2023/01/01 11:19:35;;;;;;;48.40;35.22;;;14.60;91.60;;;;;;6371114;22;20491;-82
2023/01/01 11:22:02;;;;;;;52.92;37.80;;;14.60;91.60;;;;;;6371340;22;19999;-83
2023/01/01 11:24:30;;;;;;;49.70;35.22;;;14.60;91.50;;;;;;6369202;22;20014;-78
2023/01/01 11:27:20;;;;;;;52.13;35.30;;;14.60;91.40;;;;;;6370558;22;20081;-78
2023/01/01 11:29:46;;;;;;;53.95;36.38;;;14.60;91.40;;;;;;6369519;22;20059;-79
2023/01/01 11:32:24;;;;;;;55.22;37.00;;;14.60;91.40;;;;;;6370827;22;20334;-79
2023/01/01 11:34:59;;;;;;;54.70;38.03;;;14.70;91.40;;;;;;6370975;22;20037;-79
2023/01/01 11:37:32;;;;;;;61.40;41.28;;;14.60;91.40;;;;;;6371336;22;20002;-79
2023/01/01 11:40:00;;;;;;;57.83;40.58;;;14.70;91.40;;;;;;6370756;22;20001;-79
2023/01/01 11:42:32;;;;;;;58.40;42.80;;;14.70;91.50;;;;;;6369093;22;19999;-79
2023/01/01 11:45:24;;;;;;;57.17;42.58;;;14.70;91.40;;;;;;6369995;22;20013;-77
2023/01/01 11:47:57;;;;;;;57.78;42.72;;;14.70;91.50;;;;;;6370494;22;20003;-78
2023/01/01 11:50:34;;;;;;;62.70;42.80;;;14.70;91.50;;;;;;6370548;22;20033;-78
2023/01/01 11:53:20;;;;;;;68.40;46.75;;;14.80;91.50;;;;;;6371020;22;20007;-77
2023/01/01 11:56:01;;;;;;;67.90;46.85;;;14.80;91.50;;;;;;6369732;22;20335;-77
2023/01/01 11:58:35;;;;;;;66.35;46.88;;;14.80;91.40;;;;;;6370496;22;20048;-76
2023/01/01 12:01:18;;;;;;;64.82;45.25;;;14.80;91.50;;;;;;6370466;22;20055;-76
2023/01/01 12:03:54;;;;;;;61.22;45.92;;;14.80;91.40;;;;;;6370633;22;20003;-75
2023/01/01 12:06:49;;;;;;;61.17;45.83;;;14.80;91.40;;;;;;6370589;22;20002;-82
2023/01/01 12:09:27;;;;;;;65.95;44.50;;;14.90;91.40;;;;;;6370693;22;19998;-82
2023/01/01 12:12:17;;;;;;;66.07;46.80;;;15.00;91.40;;;;;;6370238;22;20002;-82
2023/01/01 12:14:58;;;;;;;58.90;40.90;;;15.00;91.30;;;;;;6370463;22;20082;-85
2023/01/01 12:17:42;;;;;;;65.20;45.20;;;15.00;91.40;;;;;;6370259;22;20007;-81
2023/01/01 12:20:26;;;;;;;70.90;49.03;;;15.10;91.80;;;;;;6370820;22;19998;-82
2023/01/01 12:22:57;;;;;;;69.22;47.13;;;15.10;91.50;;;;;;6369776;22;19999;-82
2023/01/01 12:25:24;;;;;;;67.82;48.50;;;15.10;91.40;;;;;;6340175;22;20340;-84
2023/01/01 12:28:09;;;;;;;64.63;45.20;;;15.20;91.40;;;;;;6370425;22;20002;-83
2023/01/01 12:31:16;;;;;;;69.93;48.10;;;15.30;91.40;;;;;;6370174;22;20040;-83
2023/01/01 12:34:09;;;;;;;66.80;45.80;;;15.50;91.20;;;;;;6341886;22;20093;-83
2023/01/01 12:36:46;;;;;;;66.00;47.03;;;15.60;90.90;;;;;;6370337;22;20005;-83
2023/01/01 12:39:33;;;;;;;60.10;42.03;;;15.70;90.90;;;;;;6370988;22;19999;-82
2023/01/01 12:42:13;;;;;;;67.75;49.30;;;15.80;91.00;;;;;;6370494;22;20074;-82
2023/01/01 12:45:06;;;;;;;66.25;46.53;;;15.90;90.80;;;;;;6342386;22;20332;-83
2023/01/01 12:47:56;;;;;;;66.00;48.72;;;16.10;90.60;;;;;;6369657;22;20041;-82
2023/01/01 12:50:43;;;;;;;;;;;16.30;90.50;;;;;;6370786;22;20006;-82
2023/01/01 12:53:16;;;;;;;66.95;47.40;;;16.30;89.80;;;;;;6370443;22;20285;-82
2023/01/01 12:55:56;;;;;;;71.38;50.80;;;16.10;89.50;;;;;;6369405;22;20012;-82
2023/01/01 12:58:27;;;;;;;;;;;16.00;89.70;;;;;;6342471;22;19999;-81
2023/01/01 13:01:19;;;;;;;64.43;46.05;;;16.00;89.60;;;;;;6369780;22;20339;-82
2023/01/01 13:03:53;;;;;;;74.53;49.85;;;15.90;89.60;;;;;;6369852;22;20033;-82
2023/01/01 13:06:30;;;;;;;73.22;50.95;;;15.80;89.70;;;;;;6369868;22;20097;-81
2023/01/01 13:09:13;;;;;;;76.15;52.83;;;15.70;90.00;;;;;;6369993;22;20408;-81
2023/01/01 13:11:41;;;;;;;74.20;51.13;;;15.60;90.10;;;;;;6342256;22;20002;-81
2023/01/01 13:14:07;;;;;;;71.72;49.88;;;15.50;90.20;;;;;;6369962;22;20077;-81
2023/01/01 13:16:40;;;;;;;73.25;49.38;;;15.40;90.30;;;;;;6369665;22;20500;-82
2023/01/01 13:19:26;;;;;;;71.68;49.83;;;15.30;90.40;;;;;;6369503;22;19998;-81
2023/01/01 13:21:51;;;;;;;69.50;48.65;;;15.30;90.50;;;;;;6369818;22;19998;-84
2023/01/01 13:24:20;;;;;;;69.70;48.83;;;15.30;90.60;;;;;;6369629;22;20713;-82
2023/01/01 13:26:47;;;;;;;66.10;46.85;;;15.20;90.60;;;;;;6341285;22;20034;-82
2023/01/01 13:29:13;;;;;;;66.70;46.90;;;15.20;90.70;;;;;;6370026;22;20023;-83
2023/01/01 13:31:39;;;;;;;68.93;47.38;;;15.20;90.80;;;;;;6369492;22;20074;-84
2023/01/01 13:34:29;;;;;;;62.10;43.33;;;15.20;90.80;;;;;;6369396;22;20002;-83
2023/01/01 13:37:23;;;;;;;69.55;44.50;;;15.20;90.80;;;;;;6369451;22;20069;-84
2023/01/01 13:39:59;;;;;;;59.05;41.22;;;15.10;90.80;;;;;;6365301;22;20010;-78
2023/01/01 13:42:38;;;;;;;63.00;42.85;;;15.10;90.90;;;;;;6369831;22;20332;-78
2023/01/01 13:45:11;;;;;;;64.38;43.40;;;15.10;90.90;;;;;;6342327;22;20002;-84
2023/01/01 13:47:50;;;;;;;66.93;44.35;;;15.10;91.00;;;;;;6369872;22;19998;-84
2023/01/01 13:50:25;;;;;;;64.25;44.20;;;15.00;91.00;;;;;;6369666;22;20009;-85
2023/01/01 13:53:22;;;;;;;69.45;45.58;;;15.00;91.00;;;;;;6368624;22;20006;-84
2023/01/01 13:56:15;;;;;;;62.70;43.97;;;15.00;91.10;;;;;;6368623;22;20462;-84
2023/01/01 13:59:01;;;;;;;68.25;44.05;;;14.90;91.10;;;;;;6367567;22;20001;-78
2023/01/01 14:01:33;;;;;;;67.22;45.25;;;14.90;91.10;;;;;;6340307;22;20079;-77
2023/01/01 14:04:00;;;;;;;67.10;44.40;;;14.90;91.20;;;;;;6370066;22;20409;-77
2023/01/01 14:06:29;;;;;;;62.22;42.50;;;14.90;91.30;;;;;;6369171;22;20006;-76
2023/01/01 14:09:18;;;;;;;65.70;42.72;;;14.90;91.30;;;;;;6369391;22;20063;-77
2023/01/01 14:11:43;;;;;;;61.20;41.22;;;14.80;91.30;;;;;;6368940;22;20082;-77
2023/01/01 14:14:28;;;;;;;65.22;43.65;;;14.90;91.40;;;;;;6369691;22;20025;-77
2023/01/01 14:16:59;;;;;;;59.92;41.28;;;14.80;91.40;;;;;;6369688;22;19994;-77
2023/01/01 14:19:26;;;;;;;64.82;42.83;;;14.80;91.40;;;;;;6368881;22;20018;-77